CDT,Max TemperatureF,Mean TemperatureF,Min TemperatureF,Max Dew PointF,MeanDew PointF,Min DewpointF,Max Humidity, Mean Humidity, Min Humidity, Max Sea Level PressureIn, Mean Sea Level PressureIn, Min Sea Level PressureIn, Max VisibilityMiles, Mean VisibilityMiles, Min VisibilityMiles, Max Wind SpeedMPH, Mean Wind SpeedMPH, Max Gust SpeedMPH,PrecipitationIn, CloudCover, Events, WindDirDegrees
2012-9-1,100,86,71,68,64,54,83,52,21,30.03,29.96,29.90,10,10,10,13,2,17,0.00,1,,230
2012-9-2,100,86,71,68,63,55,83,50,24,29.99,29.93,29.87,10,10,10,13,3,16,0.00,1,,212
2012-9-3,100,86,73,66,61,55,73,44,22,29.97,29.91,29.85,10,10,10,12,3,22,0.00,0,,208
2012-9-4,100,84,69,64,62,55,83,47,22,29.93,29.87,29.80,10,10,10,9,2,9,0.00,1,,207
2012-9-5,104,88,71,72,63,55,94,56,23,29.88,29.84,29.77,10,10,1,15,2,29,0.00,1,Rain-Thunderstorm,211
2012-9-6,95,83,71,72,66,59,94,63,30,29.96,29.89,29.82,10,10,7,7,1,,0.00,1,,327
2012-9-7,104,84,64,68,60,52,94,51,17,30.03,29.84,29.73,10,10,7,24,4,37,0.00,1,Rain,244
2012-9-8,82,71,59,61,49,37,94,52,21,30.17,30.11,30.06,10,10,2,16,9,24,0.00,1,Rain-Thunderstorm,25
2012-9-9,87,69,51,54,46,36,94,53,16,30.18,30.11,30.05,10,10,10,7,1,,0.00,0,,1
2012-9-10,91,72,53,55,47,37,88,48,16,30.14,30.07,30.00,10,10,10,8,1,,0.00,0,,165
2012-9-11,89,74,60,54,49,43,72,44,20,30.10,30.04,29.98,10,10,10,15,4,22,0.00,0,,183
2012-9-12,89,78,66,64,56,50,73,50,27,30.08,30.02,29.97,10,10,10,16,7,23,0.00,0,,166
2012-9-13,77,72,64,68,61,54,88,73,50,30.21,30.11,30.02,10,10,7,9,3,,0.00,5,Rain,35
2012-9-14,64,62,60,61,57,55,94,83,73,30.25,30.22,30.18,10,10,7,9,5,,0.00,8,Rain,12
2012-9-15,71,65,59,57,56,55,88,76,60,30.23,30.17,30.10,10,10,10,8,1,,0.00,7,,307
2012-9-16,71,66,62,61,60,57,94,79,64,30.12,30.05,29.98,10,10,7,7,1,,0.00,4,Rain,189
2012-9-17,78,69,60,63,60,57,100,78,47,29.98,29.90,29.82,10,8,2,8,1,,0.00,5,,101
2012-9-18,78,66,55,61,45,32,94,50,20,30.12,30.05,29.92,10,10,10,17,5,25,0.00,1,,44
2012-9-19,86,68,50,48,42,37,87,44,18,30.15,30.07,29.99,10,10,5,12,3,18,0.00,0,,208
2012-9-20,95,78,60,57,50,46,68,45,21,30.05,29.99,29.90,10,10,10,12,3,,0.00,0,,214
2012-9-21,95,78,62,57,49,34,77,41,12,30.01,29.94,29.89,10,10,10,14,4,17,0.00,0,Rain,243
2012-9-22,96,78,59,55,47,37,72,39,13,30.10,30.03,29.95,10,10,10,8,1,,0.00,0,,70
2012-9-23,93,78,62,54,48,41,56,40,17,30.20,30.12,30.05,10,10,10,12,4,,0.00,0,,85
2012-9-24,95,78,60,61,53,43,82,49,17,30.13,30.03,29.92,10,10,10,14,4,23,0.00,0,,185
2012-9-25,93,83,73,63,55,46,65,42,20,29.98,29.91,29.83,10,10,10,17,9,25,0.00,0,,204
2012-9-26,89,78,66,68,63,55,94,63,36,30.03,29.96,29.91,10,10,3,15,6,22,0.01,3,Rain-Thunderstorm,190
2012-9-27,86,76,66,64,62,54,83,65,35,30.12,30.07,30.02,10,10,10,15,6,23,0.00,1,Thunderstorm,71
2012-9-28,80,73,66,66,64,63,94,75,54,30.10,30.05,30.00,10,9,3,6,1,,0.00,2,Rain,71
2012-9-29,71,66,62,68,65,61,100,92,88,30.04,29.99,29.94,10,7,4,13,2,17,0.00,7,Rain,52
2012-9-30,71,65,59,63,60,54,100,83,53,29.95,29.91,29.87,10,8,3,9,3,,0.00,5,Rain,41